Salto do Urubupunga, Brazil
Current Conditions -  °F | °C
As of 7:00 AM on Saturday 25 Oct 2014 (Local Time) from SBAU Reporting Station
Moderate Fog Moderate Fog  
Wind Chill: 70°   Ceiling: 8000
Heat Index: 70°   Visibility: 4mi
Dew Point: 68°   Wind: 5mph
Humidity: 94%   Direction: 50°NE
Pressure: 29.97"   Gusts: NA
Location:  20.8°S, 51.57°W
Report Text: SBAU 250900Z 05004KT 7000 VCFG FEW015 SCT060 BKN080 21/20 Q1015
Loading
Personal Weather Stations






























Interactive Weather Map
Tropical Storm Tracking
New forecast layout! Learn more

10-Day Weather Forecast

Advertisements
Track Severe Weather on mobile